Tortugas, New Mexico
Current Conditions -  °F | °C
As of 3:35 AM on Monday 20 Oct 2014 (Local Time) from KLRU Reporting Station
Clear Clear  
Wind Chill: 56°   Ceiling: Unl
Heat Index: 56°   Visibility: 10mi
Dew Point: 53°   Wind: 6mph
Humidity: 88%   Direction: 340°NNW
Pressure: 30.1"   Gusts: NA
Location:  32.6621°N, 106.641°W
Report Text: KLRU 200935Z AUTO 34005KT 10SM CLR 14/12 A3010 RMK AO2 T01350116 PWINO
Loading
Personal Weather Stations






























Interactive Weather Map
Tropical Storm Tracking
New forecast layout! Learn more

10-Day Weather Forecast

Advertisements
Track Severe Weather on mobile